KIDP

Independence Municipal Airport

Independence, Kansas, USA
METAR KIDP 231355Z AUTO 30003KT 7SM OVC015 02/02 A3029 RMK AO2 T00190017
Observed Flight Rules
Feb-23 @ 13:55 UTC (31 minutes ago) Marginal Visual Flight Rules
Wind Visibility Clouds
300° at 3 knots 7 miles
  • Overcast at 1,500' AGL
Temperatures Readings
Current 2°C / 36°F
Dewpoint 2°C / 36°F
Humidity 100%
Altimeter 30.29" Hg
Pressure 1026 hPa
Elevation 251
METAR KIDP 231355Z AUTO 30003KT 7SM OVC015 02/02 A3029 RMK AO2 T00190017
Observed Flight Rules
Feb-23 @ 13:55 UTC
(31 minutes ago)
MVFR
Wind Visibility
300° at 3 knots 7 miles
Clouds
  • Overcast at 1,500' AGL
Temperature Dewpoint
2°C / 36°F 2°C / 36°F
Humidity Altimeter Pressure
100% 30.29" Hg 1026 hPa